Other Surface Observations
Issued by NWS Missoula, MT

Home | Current Version | Previous Version | Text Only | Print | Product List | Glossary On
Versions: 1 2 3 4 5 6 7 8 9 10 11 12 13 14 15 16 17 18 19 20 21 22 23 24 25 26 27 28 29 30 31 32 33 34 35 36 37 38 39 40 41 42 43 44 45 46 47 48 49 50
000
SXUS55 KMSO 222323
OSOMSO
MONTANA AWOS SUMMARY
NATIONAL WEATHER SERVICE MISSOULA MT
523 PM MDT MON SEP 22 2014

Montana AWOS Reports

SCOBEY      |K9S2 222255Z AUTO 00000KT 40SM 28/07 A2987 RMK AO1 T02780067
LAUREL      |K6S8 222315Z AUTO 27009G14KT 40SM 28/07 A2992 RMK AO1 T02780072
ROUNDUP     |KRPX 222315Z AUTO 00000KT 40SM 25/10 A2982 RMK AO1 T02500100




USA.gov is the U.S. government's official web portal to all federal, state and local government web resources and services.